sensor_id;sensor_type;location;lat;lon;timestamp;pressure;altitude;pressure_sealevel;temperature;humidity
52343;BME280;38277;51.972;4.624;2022-07-29T00:03:48;101980.0;;;18.6;56.0
52343;BME280;38277;51.972;4.624;2022-07-29T00:08:13;101970.0;;;18.5;56.0
52343;BME280;38277;51.972;4.624;2022-07-29T00:12:30;101960.0;;;18.5;56.5
52343;BME280;38277;51.972;4.624;2022-07-29T00:17:23;101960.0;;;18.5;56.5
52343;BME280;38277;51.972;4.624;2022-07-29T00:21:56;101960.0;;;18.4;56.5
52343;BME280;38277;51.972;4.624;2022-07-29T00:26:35;101950.0;;;18.4;57.0
52343;BME280;38277;51.972;4.624;2022-07-29T00:30:25;101950.0;;;18.3;57.0
52343;BME280;38277;51.972;4.624;2022-07-29T00:34:59;101950.0;;;18.3;57.0
52343;BME280;38277;51.972;4.624;2022-07-29T00:39:48;101940.0;;;18.3;57.0
52343;BME280;38277;51.972;4.624;2022-07-29T00:44:10;101940.0;;;18.3;57.0
52343;BME280;38277;51.972;4.624;2022-07-29T00:48:38;101950.0;;;18.2;57.0
52343;BME280;38277;51.972;4.624;2022-07-29T00:53:17;101940.0;;;18.2;57.5
52343;BME280;38277;51.972;4.624;2022-07-29T00:57:47;101940.0;;;18.2;57.5
52343;BME280;38277;51.972;4.624;2022-07-29T01:02:29;101940.0;;;18.2;57.5
52343;BME280;38277;51.972;4.624;2022-07-29T01:06:57;101940.0;;;18.2;57.5
52343;BME280;38277;51.972;4.624;2022-07-29T01:10:56;101930.0;;;18.2;57.5
52343;BME280;38277;51.972;4.624;2022-07-29T01:20:12;101930.0;;;18.1;58.0
52343;BME280;38277;51.972;4.624;2022-07-29T01:26:35;101920.0;;;18.0;58.0
52343;BME280;38277;51.972;4.624;2022-07-29T01:30:05;101930.0;;;18.0;58.0
52343;BME280;38277;51.972;4.624;2022-07-29T01:33:25;101930.0;;;18.0;58.0
52343;BME280;38277;51.972;4.624;2022-07-29T01:38:27;101930.0;;;17.9;58.5
52343;BME280;38277;51.972;4.624;2022-07-29T01:43:03;101930.0;;;17.9;58.5
52343;BME280;38277;51.972;4.624;2022-07-29T01:47:05;101930.0;;;17.9;58.5
52343;BME280;38277;51.972;4.624;2022-07-29T01:51:37;101920.0;;;17.9;58.5
52343;BME280;38277;51.972;4.624;2022-07-29T01:56:19;101920.0;;;17.9;58.5
52343;BME280;38277;51.972;4.624;2022-07-29T02:00:52;101920.0;;;17.9;59.0
52343;BME280;38277;51.972;4.624;2022-07-29T02:04:57;101910.0;;;17.8;59.0
52343;BME280;38277;51.972;4.624;2022-07-29T02:14:03;101910.0;;;17.8;59.0
52343;BME280;38277;51.972;4.624;2022-07-29T02:18:40;101900.0;;;17.8;59.0
52343;BME280;38277;51.972;4.624;2022-07-29T02:23:01;101910.0;;;17.8;59.0
52343;BME280;38277;51.972;4.624;2022-07-29T02:27:28;101900.0;;;17.8;59.5
52343;BME280;38277;51.972;4.624;2022-07-29T02:32:23;101900.0;;;17.8;59.5
52343;BME280;38277;51.972;4.624;2022-07-29T02:36:43;101910.0;;;17.7;59.5
52343;BME280;38277;51.972;4.624;2022-07-29T02:41:23;101910.0;;;17.7;59.5
52343;BME280;38277;51.972;4.624;2022-07-29T02:45:27;101890.0;;;17.7;59.5
52343;BME280;38277;51.972;4.624;2022-07-29T02:50:17;101900.0;;;17.7;59.5
52343;BME280;38277;51.972;4.624;2022-07-29T02:54:41;101890.0;;;17.7;59.5
52343;BME280;38277;51.972;4.624;2022-07-29T02:59:30;101890.0;;;17.7;60.0
52343;BME280;38277;51.972;4.624;2022-07-29T03:03:48;101900.0;;;17.6;60.0
52343;BME280;38277;51.972;4.624;2022-07-29T03:08:27;101900.0;;;17.6;60.0
52343;BME280;38277;51.972;4.624;2022-07-29T03:12:45;101890.0;;;17.5;60.0
52343;BME280;38277;51.972;4.624;2022-07-29T03:17:13;101890.0;;;17.5;60.5
52343;BME280;38277;51.972;4.624;2022-07-29T03:21:50;101880.0;;;17.4;60.5
52343;BME280;38277;51.972;4.624;2022-07-29T03:26:01;101870.0;;;17.4;60.5
52343;BME280;38277;51.972;4.624;2022-07-29T03:31:06;101880.0;;;17.3;61.0
52343;BME280;38277;51.972;4.624;2022-07-29T03:35:13;101880.0;;;17.3;61.0
52343;BME280;38277;51.972;4.624;2022-07-29T03:39:35;101880.0;;;17.2;61.0
52343;BME280;38277;51.972;4.624;2022-07-29T03:44:13;101880.0;;;17.2;61.5
52343;BME280;38277;51.972;4.624;2022-07-29T03:49:00;101880.0;;;17.2;61.5
52343;BME280;38277;51.972;4.624;2022-07-29T03:52:56;101880.0;;;17.2;61.0
52343;BME280;38277;51.972;4.624;2022-07-29T03:57:49;101880.0;;;17.2;61.0
52343;BME280;38277;51.972;4.624;2022-07-29T04:02:08;101880.0;;;17.2;61.0
52343;BME280;38277;51.972;4.624;2022-07-29T04:06:58;101880.0;;;17.2;61.0
52343;BME280;38277;51.972;4.624;2022-07-29T04:11:08;101890.0;;;17.2;61.0
52343;BME280;38277;51.972;4.624;2022-07-29T04:15:47;101900.0;;;17.2;61.0
52343;BME280;38277;51.972;4.624;2022-07-29T04:19:54;101890.0;;;17.2;61.0
52343;BME280;38277;51.972;4.624;2022-07-29T04:24:44;101890.0;;;17.2;61.0
52343;BME280;38277;51.972;4.624;2022-07-29T04:29:20;101890.0;;;17.2;61.0
52343;BME280;38277;51.972;4.624;2022-07-29T04:33:35;101890.0;;;17.2;61.0
52343;BME280;38277;51.972;4.624;2022-07-29T04:38:20;101900.0;;;17.1;61.0
52343;BME280;38277;51.972;4.624;2022-07-29T04:42:36;101900.0;;;17.1;61.0
52343;BME280;38277;51.972;4.624;2022-07-29T04:51:42;101880.0;;;17.1;61.0
52343;BME280;38277;51.972;4.624;2022-07-29T04:56:20;101880.0;;;17.1;61.0
52343;BME280;38277;51.972;4.624;2022-07-29T05:00:27;101880.0;;;17.1;61.0
52343;BME280;38277;51.972;4.624;2022-07-29T05:05:16;101880.0;;;17.1;61.5
52343;BME280;38277;51.972;4.624;2022-07-29T05:09:27;101880.0;;;17.1;61.5
52343;BME280;38277;51.972;4.624;2022-07-29T05:14:09;101880.0;;;17.1;62.0
52343;BME280;38277;51.972;4.624;2022-07-29T05:18:46;101890.0;;;17.1;61.5
52343;BME280;38277;51.972;4.624;2022-07-29T05:22:58;101890.0;;;17.1;61.5
52343;BME280;38277;51.972;4.624;2022-07-29T05:27:45;101900.0;;;17.1;61.5
52343;BME280;38277;51.972;4.624;2022-07-29T05:32:06;101900.0;;;17.2;61.5
52343;BME280;38277;51.972;4.624;2022-07-29T05:36:25;101900.0;;;17.4;61.0
52343;BME280;38277;51.972;4.624;2022-07-29T05:41:18;101890.0;;;17.6;61.0
52343;BME280;38277;51.972;4.624;2022-07-29T05:45:40;101910.0;;;17.8;60.5
52343;BME280;38277;51.972;4.624;2022-07-29T05:50:07;101890.0;;;18.0;60.0
52343;BME280;38277;51.972;4.624;2022-07-29T05:54:40;101910.0;;;18.2;59.5
52343;BME280;38277;51.972;4.624;2022-07-29T05:58:56;101910.0;;;18.2;59.5
52343;BME280;38277;51.972;4.624;2022-07-29T06:03:25;101910.0;;;18.3;59.0
52343;BME280;38277;51.972;4.624;2022-07-29T06:07:56;101910.0;;;18.4;58.5
52343;BME280;38277;51.972;4.624;2022-07-29T06:12:46;101910.0;;;18.4;58.5
52343;BME280;38277;51.972;4.624;2022-07-29T06:17:28;101920.0;;;18.5;58.5
52343;BME280;38277;51.972;4.624;2022-07-29T06:21:57;101910.0;;;18.5;58.0
52343;BME280;38277;51.972;4.624;2022-07-29T06:26:02;101910.0;;;18.6;58.0
52343;BME280;38277;51.972;4.624;2022-07-29T06:30:45;101910.0;;;18.6;57.5
52343;BME280;38277;51.972;4.624;2022-07-29T06:39:51;101920.0;;;18.7;57.5
52343;BME280;38277;51.972;4.624;2022-07-29T06:44:08;101930.0;;;18.7;57.5
52343;BME280;38277;51.972;4.624;2022-07-29T06:48:42;101920.0;;;18.7;57.0
52343;BME280;38277;51.972;4.624;2022-07-29T06:53:12;101920.0;;;18.7;57.0
52343;BME280;38277;51.972;4.624;2022-07-29T06:57:50;101920.0;;;18.7;57.0
52343;BME280;38277;51.972;4.624;2022-07-29T07:02:20;101930.0;;;18.7;57.0
52343;BME280;38277;51.972;4.624;2022-07-29T07:06:31;101940.0;;;18.8;57.0
52343;BME280;38277;51.972;4.624;2022-07-29T07:11:13;101940.0;;;19.0;56.5
52343;BME280;38277;51.972;4.624;2022-07-29T07:15:28;101940.0;;;19.2;56.5
52343;BME280;38277;51.972;4.624;2022-07-29T07:24:40;101950.0;;;19.5;56.0
52343;BME280;38277;51.972;4.624;2022-07-29T07:29:17;101950.0;;;19.7;55.5
52343;BME280;38277;51.972;4.624;2022-07-29T07:33:43;101940.0;;;19.8;55.5
52343;BME280;38277;51.972;4.624;2022-07-29T07:42:37;101950.0;;;20.2;54.5
52343;BME280;38277;51.972;4.624;2022-07-29T07:47:19;101940.0;;;20.3;54.5
52343;BME280;38277;51.972;4.624;2022-07-29T07:51:41;101950.0;;;20.4;54.0
52343;BME280;38277;51.972;4.624;2022-07-29T07:56:14;101950.0;;;20.5;54.0
52343;BME280;38277;51.972;4.624;2022-07-29T08:00:32;101950.0;;;20.6;54.0
52343;BME280;38277;51.972;4.624;2022-07-29T08:05:00;101940.0;;;20.7;54.0
52343;BME280;38277;51.972;4.624;2022-07-29T08:09:44;101940.0;;;20.8;54.0
52343;BME280;38277;51.972;4.624;2022-07-29T08:13:54;101930.0;;;20.9;53.5
52343;BME280;38277;51.972;4.624;2022-07-29T08:18:32;101940.0;;;21.1;52.5
52343;BME280;38277;51.972;4.624;2022-07-29T08:22:56;101940.0;;;21.2;51.5
52343;BME280;38277;51.972;4.624;2022-07-29T08:27:49;101940.0;;;21.4;51.0
52343;BME280;38277;51.972;4.624;2022-07-29T08:32:23;101950.0;;;21.6;51.0
52343;BME280;38277;51.972;4.624;2022-07-29T08:37:04;101940.0;;;21.7;50.0
52343;BME280;38277;51.972;4.624;2022-07-29T08:41:15;101950.0;;;21.8;50.0
52343;BME280;38277;51.972;4.624;2022-07-29T08:45:41;101950.0;;;21.9;49.5
52343;BME280;38277;51.972;4.624;2022-07-29T08:50:10;101940.0;;;22.1;49.0
52343;BME280;38277;51.972;4.624;2022-07-29T08:54:38;101950.0;;;22.3;49.0
52343;BME280;38277;51.972;4.624;2022-07-29T08:59:22;101950.0;;;22.6;48.5
52343;BME280;38277;51.972;4.624;2022-07-29T09:03:49;101940.0;;;22.9;47.5
52343;BME280;38277;51.972;4.624;2022-07-29T09:12:52;101940.0;;;23.5;45.0
52343;BME280;38277;51.972;4.624;2022-07-29T09:17:04;101930.0;;;23.7;45.0
52343;BME280;38277;51.972;4.624;2022-07-29T09:21:52;101930.0;;;23.6;45.0
52343;BME280;38277;51.972;4.624;2022-07-29T09:30:28;101930.0;;;23.8;46.0
52343;BME280;38277;51.972;4.624;2022-07-29T09:39:40;101930.0;;;24.1;45.0
52343;BME280;38277;51.972;4.624;2022-07-29T09:44:08;101930.0;;;24.2;44.5
52343;BME280;38277;51.972;4.624;2022-07-29T09:49:08;101920.0;;;24.3;44.5
52343;BME280;38277;51.972;4.624;2022-07-29T09:52:55;101930.0;;;24.4;44.0
52343;BME280;38277;51.972;4.624;2022-07-29T09:57:36;101930.0;;;24.5;43.5
52343;BME280;38277;51.972;4.624;2022-07-29T10:02:17;101920.0;;;24.5;44.0
52343;BME280;38277;51.972;4.624;2022-07-29T10:06:24;101930.0;;;24.6;44.0
52343;BME280;38277;51.972;4.624;2022-07-29T10:11:18;101930.0;;;24.8;43.5
52343;BME280;38277;51.972;4.624;2022-07-29T10:15:44;101920.0;;;24.9;42.5
52343;BME280;38277;51.972;4.624;2022-07-29T10:24:30;101940.0;;;25.1;42.0
52343;BME280;38277;51.972;4.624;2022-07-29T10:28:55;101920.0;;;25.2;42.0
52343;BME280;38277;51.972;4.624;2022-07-29T10:34:23;101930.0;;;25.4;42.0
52343;BME280;38277;51.972;4.624;2022-07-29T10:39:41;101920.0;;;25.6;42.0
52343;BME280;38277;51.972;4.624;2022-07-29T10:42:43;101920.0;;;25.8;40.5
52343;BME280;38277;51.972;4.624;2022-07-29T10:47:23;101900.0;;;26.1;40.5
52343;BME280;38277;51.972;4.624;2022-07-29T10:51:56;101910.0;;;26.5;40.0
52343;BME280;38277;51.972;4.624;2022-07-29T10:56:03;101910.0;;;27.0;38.5
52343;BME280;38277;51.972;4.624;2022-07-29T11:00:38;101900.0;;;27.5;36.5
52343;BME280;38277;51.972;4.624;2022-07-29T11:05:12;101890.0;;;27.9;35.5
52343;BME280;38277;51.972;4.624;2022-07-29T11:09:39;101900.0;;;28.4;34.0
52343;BME280;38277;51.972;4.624;2022-07-29T11:13:58;101900.0;;;29.0;33.5
52343;BME280;38277;51.972;4.624;2022-07-29T11:19:19;101890.0;;;29.5;32.5
52343;BME280;38277;51.972;4.624;2022-07-29T11:23:20;101880.0;;;30.0;32.0
52343;BME280;38277;51.972;4.624;2022-07-29T11:27:33;101880.0;;;30.7;30.5
52343;BME280;38277;51.972;4.624;2022-07-29T11:32:10;101890.0;;;31.5;29.5
52343;BME280;38277;51.972;4.624;2022-07-29T11:37:23;101890.0;;;32.3;29.0
52343;BME280;38277;51.972;4.624;2022-07-29T11:41:22;101880.0;;;33.2;26.5
52343;BME280;38277;51.972;4.624;2022-07-29T11:45:46;101890.0;;;33.7;25.5
52343;BME280;38277;51.972;4.624;2022-07-29T11:50:11;101880.0;;;34.5;24.5
52343;BME280;38277;51.972;4.624;2022-07-29T11:54:33;101870.0;;;35.3;23.5
52343;BME280;38277;51.972;4.624;2022-07-29T11:59:03;101880.0;;;35.7;20.5
52343;BME280;38277;51.972;4.624;2022-07-29T12:03:30;101880.0;;;35.6;21.0
52343;BME280;38277;51.972;4.624;2022-07-29T12:08:22;101880.0;;;36.4;21.0
52343;BME280;38277;51.972;4.624;2022-07-29T12:12:51;101890.0;;;37.2;19.5
52343;BME280;38277;51.972;4.624;2022-07-29T12:17:06;101880.0;;;38.0;18.0
52343;BME280;38277;51.972;4.624;2022-07-29T12:21:43;101880.0;;;38.9;17.5
52343;BME280;38277;51.972;4.624;2022-07-29T12:25:57;101880.0;;;39.6;17.5
52343;BME280;38277;51.972;4.624;2022-07-29T12:30:56;101880.0;;;40.1;17.0
52343;BME280;38277;51.972;4.624;2022-07-29T12:35:20;101880.0;;;40.5;16.0
52343;BME280;38277;51.972;4.624;2022-07-29T12:39:49;101890.0;;;40.7;16.0
52343;BME280;38277;51.972;4.624;2022-07-29T12:44:00;101880.0;;;41.3;15.5
52343;BME280;38277;51.972;4.624;2022-07-29T12:48:40;101870.0;;;41.9;15.0
52343;BME280;38277;51.972;4.624;2022-07-29T12:53:15;101870.0;;;42.7;14.0
52343;BME280;38277;51.972;4.624;2022-07-29T12:57:57;101870.0;;;42.9;14.0
52343;BME280;38277;51.972;4.624;2022-07-29T13:02:06;101870.0;;;42.8;14.0
52343;BME280;38277;51.972;4.624;2022-07-29T13:06:41;101860.0;;;43.0;13.5
52343;BME280;38277;51.972;4.624;2022-07-29T13:10:59;101860.0;;;43.6;13.0
52343;BME280;38277;51.972;4.624;2022-07-29T13:15:42;101870.0;;;43.8;12.5
52343;BME280;38277;51.972;4.624;2022-07-29T13:20:28;101870.0;;;44.1;12.5
52343;BME280;38277;51.972;4.624;2022-07-29T13:24:50;101860.0;;;44.8;12.0
52343;BME280;38277;51.972;4.624;2022-07-29T13:29:30;101870.0;;;44.1;12.5
52343;BME280;38277;51.972;4.624;2022-07-29T13:33:33;101860.0;;;42.5;14.0
52343;BME280;38277;51.972;4.624;2022-07-29T13:38:09;101860.0;;;43.2;13.5
52343;BME280;38277;51.972;4.624;2022-07-29T13:42:51;101870.0;;;43.7;13.5
52343;BME280;38277;51.972;4.624;2022-07-29T13:47:13;101850.0;;;44.0;13.5
52343;BME280;38277;51.972;4.624;2022-07-29T13:51:37;101860.0;;;44.0;13.0
52343;BME280;38277;51.972;4.624;2022-07-29T13:56:10;101860.0;;;42.2;14.0
52343;BME280;38277;51.972;4.624;2022-07-29T14:00:34;101870.0;;;40.8;16.0
52343;BME280;38277;51.972;4.624;2022-07-29T14:05:26;101860.0;;;41.5;15.0
52343;BME280;38277;51.972;4.624;2022-07-29T14:18:32;101860.0;;;44.3;13.0
52343;BME280;38277;51.972;4.624;2022-07-29T14:22:58;101860.0;;;44.5;13.0
52343;BME280;38277;51.972;4.624;2022-07-29T14:27:46;101860.0;;;44.7;12.5
52343;BME280;38277;51.972;4.624;2022-07-29T14:36:30;101870.0;;;44.8;12.5
52343;BME280;38277;51.972;4.624;2022-07-29T14:41:02;101870.0;;;44.7;12.5
52343;BME280;38277;51.972;4.624;2022-07-29T14:54:33;101870.0;;;44.2;12.5
52343;BME280;38277;51.972;4.624;2022-07-29T14:59:08;101870.0;;;43.6;13.0
52343;BME280;38277;51.972;4.624;2022-07-29T15:03:43;101860.0;;;42.9;13.5
52343;BME280;38277;51.972;4.624;2022-07-29T15:12:49;101880.0;;;43.2;13.5
52343;BME280;38277;51.972;4.624;2022-07-29T15:17:21;101870.0;;;43.2;13.5
52343;BME280;38277;51.972;4.624;2022-07-29T15:21:54;101880.0;;;43.2;13.5
52343;BME280;38277;51.972;4.624;2022-07-29T15:25:58;101880.0;;;43.2;13.5
52343;BME280;38277;51.972;4.624;2022-07-29T15:30:24;101870.0;;;43.1;14.0
52343;BME280;38277;51.972;4.624;2022-07-29T15:35:00;101880.0;;;43.2;13.5
52343;BME280;38277;51.972;4.624;2022-07-29T15:39:41;101870.0;;;43.0;13.5
52343;BME280;38277;51.972;4.624;2022-07-29T15:44:44;101860.0;;;43.0;13.5
52343;BME280;38277;51.972;4.624;2022-07-29T15:48:38;101860.0;;;42.7;13.5
52343;BME280;38277;51.972;4.624;2022-07-29T15:53:09;101870.0;;;42.2;14.0
52343;BME280;38277;51.972;4.624;2022-07-29T16:02:18;101870.0;;;42.3;14.0
52343;BME280;38277;51.972;4.624;2022-07-29T16:06:47;101870.0;;;42.0;14.0
52343;BME280;38277;51.972;4.624;2022-07-29T16:11:01;101890.0;;;41.2;14.5
52343;BME280;38277;51.972;4.624;2022-07-29T16:15:27;101870.0;;;38.6;16.5
52343;BME280;38277;51.972;4.624;2022-07-29T16:20:21;101880.0;;;35.9;19.5
52343;BME280;38277;51.972;4.624;2022-07-29T16:24:49;101900.0;;;34.1;21.5
52343;BME280;38277;51.972;4.624;2022-07-29T16:28:56;101890.0;;;32.5;24.0
52343;BME280;38277;51.972;4.624;2022-07-29T16:42:47;101900.0;;;29.6;27.5
52343;BME280;38277;51.972;4.624;2022-07-29T16:47:16;101900.0;;;29.2;28.5
52343;BME280;38277;51.972;4.624;2022-07-29T16:56:00;101900.0;;;29.8;28.0
52343;BME280;38277;51.972;4.624;2022-07-29T17:00:28;101900.0;;;29.2;29.0
52343;BME280;38277;51.972;4.624;2022-07-29T17:05:02;101910.0;;;28.7;30.0
52343;BME280;38277;51.972;4.624;2022-07-29T17:09:43;101910.0;;;28.3;30.0
52343;BME280;38277;51.972;4.624;2022-07-29T17:14:27;101910.0;;;27.8;30.5
52343;BME280;38277;51.972;4.624;2022-07-29T17:18:31;101910.0;;;27.3;32.5
52343;BME280;38277;51.972;4.624;2022-07-29T17:23:10;101920.0;;;26.9;32.5
52343;BME280;38277;51.972;4.624;2022-07-29T17:32:02;101910.0;;;26.8;34.5
52343;BME280;38277;51.972;4.624;2022-07-29T17:36:33;101920.0;;;26.7;35.5
52343;BME280;38277;51.972;4.624;2022-07-29T17:41:00;101920.0;;;26.4;35.5
52343;BME280;38277;51.972;4.624;2022-07-29T17:45:27;101920.0;;;26.1;36.5
52343;BME280;38277;51.972;4.624;2022-07-29T17:50:23;101920.0;;;25.9;37.0
52343;BME280;38277;51.972;4.624;2022-07-29T17:54:45;101920.0;;;25.6;38.0
52343;BME280;38277;51.972;4.624;2022-07-29T17:58:56;101930.0;;;25.4;40.0
52343;BME280;38277;51.972;4.624;2022-07-29T18:03:36;101920.0;;;25.2;41.0
52343;BME280;38277;51.972;4.624;2022-07-29T18:08:16;101930.0;;;25.0;42.0
52343;BME280;38277;51.972;4.624;2022-07-29T18:12:44;101920.0;;;24.8;43.5
52343;BME280;38277;51.972;4.624;2022-07-29T18:17:03;101930.0;;;24.5;45.5
52343;BME280;38277;51.972;4.624;2022-07-29T18:21:24;101930.0;;;24.2;45.5
52343;BME280;38277;51.972;4.624;2022-07-29T18:26:12;101920.0;;;24.2;45.0
52343;BME280;38277;51.972;4.624;2022-07-29T18:35:22;101920.0;;;24.1;46.0
52343;BME280;38277;51.972;4.624;2022-07-29T18:40:00;101930.0;;;24.0;46.0
52343;BME280;38277;51.972;4.624;2022-07-29T18:44:19;101940.0;;;23.9;46.5
52343;BME280;38277;51.972;4.624;2022-07-29T18:48:49;101950.0;;;23.7;47.0
52343;BME280;38277;51.972;4.624;2022-07-29T18:53:07;101960.0;;;23.6;48.0
52343;BME280;38277;51.972;4.624;2022-07-29T18:57:51;101960.0;;;23.4;49.5
52343;BME280;38277;51.972;4.624;2022-07-29T19:01:55;101970.0;;;23.2;51.0
52343;BME280;38277;51.972;4.624;2022-07-29T19:11:09;101980.0;;;22.9;52.0
52343;BME280;38277;51.972;4.624;2022-07-29T19:24:50;102000.0;;;22.5;54.5
52343;BME280;38277;51.972;4.624;2022-07-29T19:29:09;102010.0;;;22.3;55.5
52343;BME280;38277;51.972;4.624;2022-07-29T19:33:39;102010.0;;;22.2;56.0
52343;BME280;38277;51.972;4.624;2022-07-29T19:42:53;102020.0;;;21.9;57.0
52343;BME280;38277;51.972;4.624;2022-07-29T19:47:16;102040.0;;;21.8;58.0
52343;BME280;38277;51.972;4.624;2022-07-29T19:56:21;102050.0;;;21.6;59.5
52343;BME280;38277;51.972;4.624;2022-07-29T20:05:09;102060.0;;;21.4;61.0
52343;BME280;38277;51.972;4.624;2022-07-29T20:09:50;102060.0;;;21.3;61.5
52343;BME280;38277;51.972;4.624;2022-07-29T20:13:55;102060.0;;;21.1;62.5
52343;BME280;38277;51.972;4.624;2022-07-29T20:18:58;102050.0;;;21.0;63.0
52343;BME280;38277;51.972;4.624;2022-07-29T20:23:01;102050.0;;;20.9;63.0
52343;BME280;38277;51.972;4.624;2022-07-29T20:27:35;102050.0;;;20.9;63.5
52343;BME280;38277;51.972;4.624;2022-07-29T20:32:11;102040.0;;;20.8;64.0
52343;BME280;38277;51.972;4.624;2022-07-29T20:36:40;102050.0;;;20.7;64.5
52343;BME280;38277;51.972;4.624;2022-07-29T20:41:06;102040.0;;;20.7;64.5
52343;BME280;38277;51.972;4.624;2022-07-29T20:45:34;102040.0;;;20.6;65.0
52343;BME280;38277;51.972;4.624;2022-07-29T20:50:05;102040.0;;;20.6;65.0
52343;BME280;38277;51.972;4.624;2022-07-29T20:54:56;102030.0;;;20.5;65.0
52343;BME280;38277;51.972;4.624;2022-07-29T20:59:07;102040.0;;;20.5;65.5
52343;BME280;38277;51.972;4.624;2022-07-29T21:08:25;102040.0;;;20.3;65.5
52343;BME280;38277;51.972;4.624;2022-07-29T21:12:45;102040.0;;;20.3;65.5
52343;BME280;38277;51.972;4.624;2022-07-29T21:17:08;102050.0;;;20.2;66.0
52343;BME280;38277;51.972;4.624;2022-07-29T21:21:32;102040.0;;;20.2;66.0
52343;BME280;38277;51.972;4.624;2022-07-29T21:30:35;102050.0;;;20.1;66.5
52343;BME280;38277;51.972;4.624;2022-07-29T21:39:41;102050.0;;;20.0;66.5
52343;BME280;38277;51.972;4.624;2022-07-29T21:44:23;102050.0;;;19.9;67.0
52343;BME280;38277;51.972;4.624;2022-07-29T21:48:25;102060.0;;;19.9;67.0
52343;BME280;38277;51.972;4.624;2022-07-29T21:53:23;102050.0;;;19.8;67.0
52343;BME280;38277;51.972;4.624;2022-07-29T21:57:35;102050.0;;;19.8;67.0
52343;BME280;38277;51.972;4.624;2022-07-29T22:02:35;102060.0;;;19.8;67.0
52343;BME280;38277;51.972;4.624;2022-07-29T22:06:53;102050.0;;;19.7;67.0
52343;BME280;38277;51.972;4.624;2022-07-29T22:10:54;102050.0;;;19.7;67.0
52343;BME280;38277;51.972;4.624;2022-07-29T22:15:44;102060.0;;;19.7;67.0
52343;BME280;38277;51.972;4.624;2022-07-29T22:20:24;102070.0;;;19.6;67.0
52343;BME280;38277;51.972;4.624;2022-07-29T22:24:47;102080.0;;;19.5;67.5
52343;BME280;38277;51.972;4.624;2022-07-29T22:29:06;102090.0;;;19.5;68.0
52343;BME280;38277;51.972;4.624;2022-07-29T22:33:26;102100.0;;;19.4;68.0
52343;BME280;38277;51.972;4.624;2022-07-29T22:37:59;102100.0;;;19.3;68.5
52343;BME280;38277;51.972;4.624;2022-07-29T22:42:37;102090.0;;;19.3;68.5
52343;BME280;38277;51.972;4.624;2022-07-29T22:47:21;102100.0;;;19.2;69.0
52343;BME280;38277;51.972;4.624;2022-07-29T22:51:50;102090.0;;;19.2;69.5
52343;BME280;38277;51.972;4.624;2022-07-29T22:55:58;102090.0;;;19.2;69.5
52343;BME280;38277;51.972;4.624;2022-07-29T23:00:44;102100.0;;;19.1;69.5
52343;BME280;38277;51.972;4.624;2022-07-29T23:05:07;102100.0;;;19.1;69.5
52343;BME280;38277;51.972;4.624;2022-07-29T23:14:18;102080.0;;;19.1;69.5
52343;BME280;38277;51.972;4.624;2022-07-29T23:18:26;102090.0;;;19.1;69.5
52343;BME280;38277;51.972;4.624;2022-07-29T23:23:05;102090.0;;;19.0;69.5
52343;BME280;38277;51.972;4.624;2022-07-29T23:27:39;102090.0;;;19.0;69.0
52343;BME280;38277;51.972;4.624;2022-07-29T23:32:12;102080.0;;;19.0;69.0
52343;BME280;38277;51.972;4.624;2022-07-29T23:36:47;102090.0;;;19.0;69.0
52343;BME280;38277;51.972;4.624;2022-07-29T23:41:00;102090.0;;;18.9;69.5
52343;BME280;38277;51.972;4.624;2022-07-29T23:45:51;102080.0;;;18.8;69.5
52343;BME280;38277;51.972;4.624;2022-07-29T23:50:31;102080.0;;;18.8;69.5
52343;BME280;38277;51.972;4.624;2022-07-29T23:54:50;102080.0;;;18.8;69.5
52343;BME280;38277;51.972;4.624;2022-07-29T23:58:56;102070.0;;;18.8;69.5
